Time;durP1;ratioP1;P1;durP2;ratioP2;P2;SDS_P1;SDS_P2;PMS_P1;PMS_P2;Temp;Humidity;BMP_temperature;BMP_pressure;BME280_temperature;BME280_humidity;BME280_pressure;Samples;Min_cycle;Max_cycle;Signal;HPM_P1;HPM_P2
2023/12/20 00:02:25;;;;;;;;;;;6.70;99.90;;;;;;5118496;28;19987;-76
2023/12/20 00:05:11;;;;;;;;;;;6.70;99.90;;;;;;5113732;28;19911;-76
2023/12/20 00:07:57;;;;;;;;;;;6.70;99.90;;;;;;5093957;28;20001;-75
2023/12/20 00:10:43;;;;;;;;;;;6.70;99.90;;;;;;5102502;28;20382;-77
2023/12/20 00:13:29;;;;;;;;;;;6.70;99.90;;;;;;5115850;28;20023;-76
2023/12/20 00:16:15;;;;;;;;;;;6.70;99.90;;;;;;5116482;28;19912;-76
2023/12/20 00:19:01;;;;;;;;;;;6.70;99.90;;;;;;5099139;28;19912;-77
2023/12/20 00:21:47;;;;;;;;;;;6.70;99.90;;;;;;5082147;28;19950;-76
2023/12/20 00:24:33;;;;;;;;;;;6.70;99.90;;;;;;5088664;28;19924;-76
2023/12/20 00:27:19;;;;;;;;;;;6.70;99.90;;;;;;5110976;28;19926;-76
2023/12/20 00:30:05;;;;;;;;;;;6.70;99.90;;;;;;5084596;28;19951;-76
2023/12/20 00:32:51;;;;;;;;;;;6.70;99.90;;;;;;5081806;28;19927;-76
2023/12/20 00:35:37;;;;;;;;;;;6.80;99.90;;;;;;5101755;28;19994;-76
2023/12/20 00:38:23;;;;;;;;;;;6.80;99.90;;;;;;5095001;28;20233;-79
2023/12/20 00:41:09;;;;;;;;;;;6.70;99.90;;;;;;5096848;28;20339;-76
2023/12/20 00:43:55;;;;;;;;;;;6.70;99.90;;;;;;5116260;28;19939;-77
2023/12/20 00:46:41;;;;;;;;;;;6.70;99.90;;;;;;5100368;28;19958;-78
2023/12/20 00:49:27;;;;;;;;;;;6.70;99.90;;;;;;5089537;28;19941;-77
2023/12/20 00:52:13;;;;;;;;;;;6.80;99.90;;;;;;5098410;28;19923;-78
2023/12/20 00:54:59;;;;;;;;;;;6.80;99.90;;;;;;5096686;28;20012;-77
2023/12/20 00:57:45;;;;;;;;;;;6.90;99.90;;;;;;5104147;28;19916;-76
2023/12/20 01:00:31;;;;;;;;;;;6.90;99.90;;;;;;5096687;28;19947;-77
2023/12/20 01:03:17;;;;;;;;;;;6.90;99.90;;;;;;5113352;28;19927;-76
2023/12/20 01:06:05;;;;;;;;;;;7.00;99.90;;;;;;5082802;28;19912;-76
2023/12/20 01:08:53;;;;;;;;;;;7.00;99.90;;;;;;5100523;28;19919;-78
2023/12/20 01:11:39;;;;;;;;;;;6.90;99.90;;;;;;5089426;28;19923;-76
2023/12/20 01:14:25;;;;;;;;;;;7.00;99.90;;;;;;5100084;28;19959;-76
2023/12/20 01:17:12;;;;;;;;;;;6.90;99.90;;;;;;5114503;28;19919;-78
2023/12/20 01:19:58;;;;;;;;;;;7.00;99.90;;;;;;5112799;27;19965;-77
2023/12/20 01:22:45;;;;;;;;;;;6.90;99.90;;;;;;5116512;28;19912;-78
2023/12/20 01:25:36;;;;;;;;;;;7.00;99.90;;;;;;5114243;28;19933;-77
2023/12/20 01:28:22;;;;;;;;;;;7.00;99.90;;;;;;5115821;28;19916;-78
2023/12/20 01:31:08;;;;;;;;;;;7.10;99.90;;;;;;5096902;28;20297;-77
2023/12/20 01:33:54;;;;;;;;;;;7.10;99.90;;;;;;5107250;28;19920;-76
2023/12/20 01:36:40;;;;;;;;;;;7.00;99.90;;;;;;5094998;28;20234;-77
2023/12/20 01:39:26;;;;;;;;;;;7.00;99.90;;;;;;5108765;28;19919;-77
2023/12/20 01:42:12;;;;;;;;;;;6.90;99.90;;;;;;5107772;28;20008;-76
2023/12/20 01:44:58;;;;;;;;;;;6.80;99.90;;;;;;5081022;28;19923;-77
2023/12/20 01:47:43;;;;;;;;;;;6.80;99.90;;;;;;5094527;28;19912;-76
2023/12/20 01:50:31;;;;;;;;;;;6.80;99.90;;;;;;5096795;28;20206;-76
2023/12/20 01:53:17;;;;;;;;;;;6.70;99.90;;;;;;5093105;28;19926;-75
2023/12/20 01:56:05;;;;;;;;;;;6.80;99.90;;;;;;5114230;28;19997;-76
2023/12/20 01:58:51;;;;;;;;;;;6.70;99.90;;;;;;5114322;28;20338;-77
2023/12/20 02:01:37;;;;;;;;;;;6.70;99.90;;;;;;5111094;27;19938;-77
2023/12/20 02:04:26;;;;;;;;;;;6.70;99.90;;;;;;5106607;28;19941;-77
2023/12/20 02:07:12;;;;;;;;;;;6.70;99.90;;;;;;5103089;27;19922;-76
2023/12/20 02:09:58;;;;;;;;;;;6.70;99.90;;;;;;5091841;28;20222;-76
2023/12/20 02:12:47;;;;;;;;;;;6.60;99.90;;;;;;5110085;27;19923;-75
2023/12/20 02:15:32;;;;;;;;;;;6.60;99.90;;;;;;5118548;27;19934;-78
2023/12/20 02:18:18;;;;;;;;;;;6.50;99.90;;;;;;5104601;28;19976;-77
2023/12/20 02:21:05;;;;;;;;;;;6.60;99.90;;;;;;5104700;27;19968;-77
2023/12/20 02:23:51;;;;;;;;;;;6.60;99.90;;;;;;5103984;28;20035;-76
2023/12/20 02:26:37;;;;;;;;;;;6.50;99.90;;;;;;5114282;28;19916;-76
2023/12/20 02:29:26;;;;;;;;;;;6.40;99.90;;;;;;5095238;28;19919;-76
2023/12/20 02:32:14;;;;;;;;;;;6.50;99.90;;;;;;5114051;28;19916;-77
2023/12/20 02:35:06;;;;;;;;;;;6.40;99.90;;;;;;5073412;28;19924;-77
2023/12/20 02:37:52;;;;;;;;;;;6.50;99.90;;;;;;5053556;28;19948;-77
2023/12/20 02:40:39;;;;;;;;;;;6.40;99.90;;;;;;5068740;28;19966;-77
2023/12/20 02:43:29;;;;;;;;;;;6.40;99.90;;;;;;5041834;28;20632;-76
2023/12/20 02:46:15;;;;;;;;;;;6.30;99.90;;;;;;5053717;28;19913;-76
2023/12/20 02:49:01;;;;;;;;;;;6.40;99.90;;;;;;5040459;28;19959;-76
2023/12/20 02:51:47;;;;;;;;;;;6.30;99.90;;;;;;5063447;28;19942;-77
2023/12/20 02:54:33;;;;;;;;;;;6.30;99.90;;;;;;5073385;28;19926;-77
2023/12/20 02:57:22;;;;;;;;;;;6.20;99.90;;;;;;5075556;28;20027;-77
2023/12/20 03:00:10;;;;;;;;;;;6.20;99.90;;;;;;5075892;28;19916;-76
2023/12/20 03:02:56;;;;;;;;;;;6.20;99.90;;;;;;5073291;28;19944;-76
2023/12/20 03:05:42;;;;;;;;;;;6.30;99.90;;;;;;5043761;28;19923;-76
2023/12/20 03:08:28;;;;;;;;;;;6.20;99.90;;;;;;5057355;28;19913;-76
2023/12/20 03:11:13;;;;;;;;;;;6.10;99.90;;;;;;5063882;28;19924;-77
2023/12/20 03:13:59;;;;;;;;;;;6.10;99.90;;;;;;5057055;28;19931;-77
2023/12/20 03:16:51;;;;;;;;;;;6.10;99.90;;;;;;5057448;28;19917;-75
2023/12/20 03:19:41;;;;;;;;;;;6.10;99.90;;;;;;5043415;28;19923;-76
2023/12/20 03:22:27;;;;;;;;;;;6.10;99.90;;;;;;5050871;28;20403;-76
2023/12/20 03:25:13;;;;;;;;;;;6.00;99.90;;;;;;5076917;28;20298;-78
2023/12/20 03:27:59;;;;;;;;;;;6.00;99.90;;;;;;5076108;28;19959;-77
2023/12/20 03:30:45;;;;;;;;;;;6.00;99.90;;;;;;5062188;28;19916;-77
2023/12/20 03:33:32;;;;;;;;;;;6.00;99.90;;;;;;5096225;28;19920;-77
2023/12/20 03:36:18;;;;;;;;;;;5.90;99.90;;;;;;5110218;28;19956;-77
2023/12/20 03:39:10;;;;;;;;;;;5.90;99.90;;;;;;5109250;28;19919;-78
2023/12/20 03:41:55;;;;;;;;;;;5.90;99.90;;;;;;5117926;28;19922;-77
2023/12/20 03:44:41;;;;;;;;;;;5.90;99.90;;;;;;5098478;28;20247;-78
2023/12/20 03:47:30;;;;;;;;;;;5.90;99.90;;;;;;5118261;28;19922;-77
2023/12/20 03:50:16;;;;;;;;;;;5.90;99.90;;;;;;5102857;28;19918;-75
2023/12/20 03:53:03;;;;;;;;;;;5.90;99.90;;;;;;5116752;28;19927;-76
2023/12/20 03:55:49;;;;;;;;;;;5.80;99.90;;;;;;5104446;28;19973;-76
2023/12/20 03:58:35;;;;;;;;;;;5.80;99.90;;;;;;5083235;28;19916;-78
2023/12/20 04:01:21;;;;;;;;;;;5.80;99.90;;;;;;5096727;28;19919;-76
2023/12/20 04:04:07;;;;;;;;;;;5.80;99.90;;;;;;5087423;28;19916;-76
2023/12/20 04:06:55;;;;;;;;;;;5.70;99.90;;;;;;5089222;28;20007;-76
2023/12/20 04:09:41;;;;;;;;;;;5.70;99.90;;;;;;5097233;28;20298;-77
2023/12/20 04:12:30;;;;;;;;;;;5.70;99.90;;;;;;5098957;27;19923;-76
2023/12/20 04:15:16;;;;;;;;;;;5.70;99.90;;;;;;5136139;27;19915;-76
2023/12/20 04:18:02;;;;;;;;;;;5.70;99.90;;;;;;5132197;27;19937;-76
2023/12/20 04:20:49;;;;;;;;;;;5.70;99.90;;;;;;5116370;28;19962;-77
2023/12/20 04:23:36;;;;;;;;;;;5.70;99.90;;;;;;5115108;28;20290;-76
2023/12/20 04:26:22;;;;;;;;;;;5.70;99.90;;;;;;5110382;28;19922;-77
2023/12/20 04:29:08;;;;;;;;;;;5.50;99.90;;;;;;5101209;28;19999;-76
2023/12/20 04:31:54;;;;;;;;;;;5.50;99.90;;;;;;5102342;28;19911;-76
2023/12/20 04:34:39;;;;;;;;;;;5.50;99.90;;;;;;5102829;28;20006;-76
2023/12/20 04:37:25;;;;;;;;;;;5.50;99.90;;;;;;5116734;28;20346;-76
2023/12/20 04:40:11;;;;;;;;;;;5.50;99.90;;;;;;5096456;28;19916;-76
2023/12/20 04:42:57;;;;;;;;;;;5.50;99.90;;;;;;5096914;28;19998;-77
2023/12/20 04:45:43;;;;;;;;;;;5.50;99.90;;;;;;5103191;28;19935;-76
2023/12/20 04:48:29;;;;;;;;;;;5.50;99.90;;;;;;5096672;28;20260;-76
2023/12/20 04:51:15;;;;;;;;;;;5.50;99.90;;;;;;5099859;28;19944;-75
2023/12/20 04:54:04;;;;;;;;;;;5.60;99.90;;;;;;5102309;28;19968;-76
2023/12/20 04:56:49;;;;;;;;;;;5.60;99.90;;;;;;5082037;28;19923;-76
2023/12/20 04:59:35;;;;;;;;;;;5.60;99.90;;;;;;5085670;28;20007;-75
2023/12/20 05:02:22;;;;;;;;;;;5.60;99.90;;;;;;5109726;28;20213;-76
2023/12/20 05:05:08;;;;;;;;;;;5.60;99.90;;;;;;5095918;28;19922;-76
2023/12/20 05:07:53;;;;;;;;;;;5.70;99.90;;;;;;5116889;28;19935;-76
2023/12/20 05:10:40;;;;;;;;;;;5.70;99.90;;;;;;5115125;28;19924;-76
2023/12/20 05:13:27;;;;;;;;;;;5.70;99.90;;;;;;5094443;28;19916;-76
2023/12/20 05:16:14;;;;;;;;;;;5.70;99.90;;;;;;5100595;28;19923;-75
2023/12/20 05:19:02;;;;;;;;;;;5.70;99.90;;;;;;5095490;28;19954;-76
2023/12/20 05:21:47;;;;;;;;;;;5.70;99.90;;;;;;5115632;28;19912;-76
2023/12/20 05:24:33;;;;;;;;;;;5.70;99.90;;;;;;5112940;28;20366;-76
2023/12/20 05:27:19;;;;;;;;;;;5.70;99.90;;;;;;5107598;28;19915;-77
2023/12/20 05:30:05;;;;;;;;;;;5.80;99.90;;;;;;5115060;28;19912;-76
2023/12/20 05:32:51;;;;;;;;;;;5.80;99.90;;;;;;5100065;28;19920;-76
2023/12/20 05:35:37;;;;;;;;;;;5.80;99.90;;;;;;5115037;28;20237;-77
2023/12/20 05:38:23;;;;;;;;;;;5.80;99.90;;;;;;5094685;28;19966;-76
2023/12/20 05:41:09;;;;;;;;;;;5.90;99.90;;;;;;5112104;28;19927;-76
2023/12/20 05:43:55;;;;;;;;;;;5.90;99.90;;;;;;5079879;28;20329;-76
2023/12/20 05:46:40;;;;;;;;;;;5.90;99.90;;;;;;5098813;28;19922;-75
2023/12/20 05:49:26;;;;;;;;;;;5.90;99.90;;;;;;5114099;28;19972;-76
2023/12/20 05:52:12;;;;;;;;;;;5.90;99.90;;;;;;5096738;28;19912;-76
2023/12/20 05:55:01;;;;;;;;;;;5.90;99.90;;;;;;5098744;28;19916;-76
2023/12/20 05:57:47;;;;;;;;;;;6.00;99.90;;;;;;5113852;28;20340;-76
2023/12/20 06:00:33;;;;;;;;;;;6.00;99.90;;;;;;5107126;28;19916;-76
2023/12/20 06:03:19;;;;;;;;;;;6.00;99.90;;;;;;5096824;28;19916;-76
2023/12/20 06:06:06;;;;;;;;;;;6.00;99.90;;;;;;5095914;28;19923;-75
2023/12/20 06:08:52;;;;;;;;;;;6.10;99.90;;;;;;5091750;28;20020;-75
2023/12/20 06:11:38;;;;;;;;;;;6.00;99.90;;;;;;5113983;28;20309;-76
2023/12/20 06:14:24;;;;;;;;;;;6.10;99.90;;;;;;5112845;28;19931;-75
2023/12/20 06:17:10;;;;;;;;;;;6.10;99.90;;;;;;5113249;28;19980;-75
2023/12/20 06:19:57;;;;;;;;;;;6.10;99.90;;;;;;5114098;28;19923;-75
2023/12/20 06:22:42;;;;;;;;;;;6.10;99.90;;;;;;5094079;28;20348;-76
2023/12/20 06:25:28;;;;;;;;;;;6.20;99.90;;;;;;5094089;28;20073;-76
2023/12/20 06:28:14;;;;;;;;;;;6.20;99.90;;;;;;5085128;28;20337;-75
2023/12/20 06:31:00;;;;;;;;;;;6.10;99.90;;;;;;5113782;28;20282;-76
2023/12/20 06:33:49;;;;;;;;;;;6.20;99.90;;;;;;5112910;28;19949;-75
2023/12/20 06:36:35;;;;;;;;;;;6.20;99.90;;;;;;5100121;28;19959;-76
2023/12/20 06:39:21;;;;;;;;;;;6.20;99.90;;;;;;5094774;28;19912;-75
2023/12/20 06:42:08;;;;;;;;;;;6.20;99.90;;;;;;5099727;28;19912;-76
2023/12/20 06:44:54;;;;;;;;;;;6.20;99.90;;;;;;5114066;28;20027;-76
2023/12/20 06:47:40;;;;;;;;;;;6.20;99.90;;;;;;5098339;28;19916;-76
2023/12/20 06:50:26;;;;;;;;;;;6.20;99.90;;;;;;5099754;28;19916;-76
2023/12/20 06:53:12;;;;;;;;;;;6.20;99.90;;;;;;5113046;28;20418;-75
2023/12/20 06:55:58;;;;;;;;;;;6.20;99.90;;;;;;5091038;28;19947;-76
2023/12/20 06:58:44;;;;;;;;;;;6.20;99.90;;;;;;5093458;28;19911;-76
2023/12/20 07:01:31;;;;;;;;;;;6.10;99.90;;;;;;5110072;28;19950;-75
2023/12/20 07:04:20;;;;;;;;;;;6.10;99.90;;;;;;5093272;28;19988;-75
2023/12/20 07:07:07;;;;;;;;;;;6.20;99.90;;;;;;5099894;28;19969;-75
2023/12/20 07:09:54;;;;;;;;;;;6.10;99.90;;;;;;5100237;28;20228;-77
2023/12/20 07:12:39;;;;;;;;;;;6.20;99.90;;;;;;5108392;28;19919;-76
2023/12/20 07:15:26;;;;;;;;;;;6.20;99.90;;;;;;5080241;28;19931;-77
2023/12/20 07:18:12;;;;;;;;;;;6.20;99.90;;;;;;5080373;28;19912;-76
2023/12/20 07:20:58;;;;;;;;;;;6.20;99.90;;;;;;5112716;28;19912;-75
2023/12/20 07:23:45;;;;;;;;;;;6.20;99.90;;;;;;5094084;28;19912;-78
2023/12/20 07:26:33;;;;;;;;;;;6.20;99.90;;;;;;5092627;28;19923;-76
2023/12/20 07:29:19;;;;;;;;;;;6.20;99.90;;;;;;5083862;28;19947;-76
2023/12/20 07:32:05;;;;;;;;;;;6.20;99.90;;;;;;5112811;28;19923;-77
2023/12/20 07:34:51;;;;;;;;;;;6.20;99.90;;;;;;5093334;28;20317;-77
2023/12/20 07:37:37;;;;;;;;;;;6.20;99.90;;;;;;5115184;28;20336;-77
2023/12/20 07:40:24;;;;;;;;;;;6.20;99.90;;;;;;5113812;28;19919;-75
2023/12/20 07:43:09;;;;;;;;;;;6.20;99.90;;;;;;5110268;28;19926;-76
2023/12/20 07:45:55;;;;;;;;;;;6.20;99.90;;;;;;5096600;28;19916;-77
2023/12/20 07:48:42;;;;;;;;;;;6.20;99.90;;;;;;5092570;28;19911;-77
2023/12/20 07:51:27;;;;;;;;;;;6.20;99.90;;;;;;5117198;28;19942;-77
2023/12/20 07:54:13;;;;;;;;;;;6.20;99.90;;;;;;5102090;28;19927;-77
2023/12/20 07:56:59;;;;;;;;;;;6.20;99.90;;;;;;5110295;28;19916;-78
2023/12/20 07:59:45;;;;;;;;;;;6.20;99.90;;;;;;5103440;28;20293;-77
2023/12/20 08:02:31;;;;;;;;;;;6.20;99.90;;;;;;5109503;28;19950;-78
2023/12/20 08:05:20;;;;;;;;;;;6.20;99.90;;;;;;5105143;28;19912;-78
2023/12/20 08:08:06;;;;;;;;;;;6.10;99.90;;;;;;5104027;28;19919;-77
2023/12/20 08:10:52;;;;;;;;;;;6.10;99.90;;;;;;5104611;28;19912;-77
2023/12/20 08:13:38;;;;;;;;;;;6.10;99.90;;;;;;5102433;28;19917;-78
2023/12/20 08:16:23;;;;;;;;;;;6.10;99.90;;;;;;5094134;28;19912;-77
2023/12/20 08:19:09;;;;;;;;;;;6.20;99.90;;;;;;5117679;28;19926;-77
2023/12/20 08:21:55;;;;;;;;;;;6.20;99.90;;;;;;5116615;28;19923;-77
2023/12/20 08:24:41;;;;;;;;;;;6.20;99.90;;;;;;5102049;28;19915;-77
2023/12/20 08:27:27;;;;;;;;;;;6.20;99.90;;;;;;5111129;28;20006;-77
2023/12/20 08:30:13;;;;;;;;;;;6.30;99.90;;;;;;5093950;28;19927;-76
2023/12/20 08:32:59;;;;;;;;;;;6.20;99.90;;;;;;5107676;28;20216;-77
2023/12/20 08:35:45;;;;;;;;;;;6.30;99.90;;;;;;5116244;28;19990;-77
2023/12/20 08:38:32;;;;;;;;;;;6.30;99.90;;;;;;5116443;28;19943;-77
2023/12/20 08:41:18;;;;;;;;;;;6.30;99.90;;;;;;5110547;28;19923;-76
2023/12/20 08:44:04;;;;;;;;;;;6.30;99.90;;;;;;5107582;28;19922;-77
2023/12/20 08:46:50;;;;;;;;;;;6.20;99.90;;;;;;5102944;28;19985;-77
2023/12/20 08:49:36;;;;;;;;;;;6.30;99.90;;;;;;5100246;28;19916;-77
2023/12/20 08:52:23;;;;;;;;;;;6.30;99.90;;;;;;5095213;28;19916;-76
2023/12/20 08:55:10;;;;;;;;;;;6.30;99.90;;;;;;5095584;28;20249;-76
2023/12/20 08:57:56;;;;;;;;;;;6.30;99.90;;;;;;5097885;28;19991;-77
2023/12/20 09:00:42;;;;;;;;;;;6.30;99.90;;;;;;5114322;28;19916;-76
2023/12/20 09:03:28;;;;;;;;;;;6.20;99.90;;;;;;5116772;28;20239;-77
2023/12/20 09:06:13;;;;;;;;;;;6.30;99.90;;;;;;5113006;28;20002;-76
2023/12/20 09:08:59;;;;;;;;;;;6.30;99.90;;;;;;5081303;28;19924;-77
2023/12/20 09:11:47;;;;;;;;;;;6.30;99.90;;;;;;5095630;28;20624;-76
2023/12/20 09:14:34;;;;;;;;;;;6.30;99.90;;;;;;5083275;28;19999;-77
2023/12/20 09:17:22;;;;;;;;;;;6.30;99.90;;;;;;5094986;28;20264;-76
2023/12/20 09:20:09;;;;;;;;;;;6.40;99.90;;;;;;5095250;28;19920;-76
2023/12/20 09:22:55;;;;;;;;;;;6.40;99.90;;;;;;5114330;28;19995;-76
2023/12/20 09:25:42;;;;;;;;;;;6.40;99.90;;;;;;5114611;28;19923;-77
2023/12/20 09:28:28;;;;;;;;;;;6.40;99.90;;;;;;5115668;28;19957;-76
2023/12/20 09:31:14;;;;;;;;;;;6.50;99.90;;;;;;5100880;28;19923;-77
2023/12/20 09:33:59;;;;;;;;;;;6.50;99.90;;;;;;5103999;28;20018;-78
2023/12/20 09:36:46;;;;;;;;;;;6.60;99.90;;;;;;5105911;28;19927;-77
2023/12/20 09:39:32;;;;;;;;;;;6.60;99.90;;;;;;5094747;28;19947;-76
2023/12/20 09:42:21;;;;;;;;;;;6.60;99.90;;;;;;5082797;28;19995;-77
2023/12/20 09:45:08;;;;;;;;;;;6.60;99.90;;;;;;5101412;28;19911;-77
2023/12/20 09:47:54;;;;;;;;;;;6.60;99.90;;;;;;5114985;28;19920;-77
2023/12/20 09:50:40;;;;;;;;;;;6.70;99.90;;;;;;5114311;28;19916;-77
2023/12/20 09:53:29;;;;;;;;;;;6.70;99.90;;;;;;5113399;28;20256;-76
2023/12/20 09:56:15;;;;;;;;;;;6.70;99.90;;;;;;5085218;28;19916;-76
2023/12/20 09:59:01;;;;;;;;;;;6.70;99.90;;;;;;5113954;28;19927;-77
2023/12/20 10:01:48;;;;;;;;;;;6.70;99.90;;;;;;5113746;28;20425;-76
2023/12/20 10:04:34;;;;;;;;;;;6.70;99.90;;;;;;5093238;28;19923;-77
2023/12/20 10:07:22;;;;;;;;;;;6.70;99.90;;;;;;5096932;28;19923;-76
2023/12/20 10:10:08;;;;;;;;;;;6.70;99.90;;;;;;5111312;28;19912;-77
2023/12/20 10:13:05;;;;;;;;;;;6.70;99.90;;;;;;5115443;28;19912;-77
2023/12/20 10:15:51;;;;;;;;;;;6.70;99.90;;;;;;5113834;28;19942;-77
2023/12/20 10:18:37;;;;;;;;;;;6.80;99.90;;;;;;5114272;28;19923;-77
2023/12/20 10:21:23;;;;;;;;;;;6.80;99.90;;;;;;5105783;28;19923;-77
2023/12/20 10:24:08;;;;;;;;;;;6.80;99.90;;;;;;5080231;28;19923;-76
2023/12/20 10:27:04;;;;;;;;;;;6.80;99.90;;;;;;5094628;28;19957;-77
2023/12/20 10:29:50;;;;;;;;;;;6.80;99.90;;;;;;5096341;28;19944;-76
2023/12/20 10:32:36;;;;;;;;;;;6.90;99.90;;;;;;5099341;28;19916;-77
2023/12/20 10:35:23;;;;;;;;;;;6.90;99.90;;;;;;5104553;28;19927;-76
2023/12/20 10:38:09;;;;;;;;;;;6.90;99.90;;;;;;5094182;28;19912;-76
2023/12/20 10:40:56;;;;;;;;;;;7.00;99.90;;;;;;5094718;28;19916;-76
2023/12/20 10:43:45;;;;;;;;;;;7.00;99.90;;;;;;5103772;28;19916;-76
2023/12/20 10:46:32;;;;;;;;;;;7.00;99.90;;;;;;5110559;28;19923;-77
2023/12/20 10:49:18;;;;;;;;;;;7.00;99.90;;;;;;5093599;28;19912;-77
2023/12/20 10:52:04;;;;;;;;;;;7.10;99.90;;;;;;5112960;28;19915;-77
2023/12/20 10:54:50;;;;;;;;;;;7.10;99.90;;;;;;5112000;28;20426;-76
2023/12/20 10:57:36;;;;;;;;;;;7.10;99.90;;;;;;5099498;28;19923;-77
2023/12/20 11:00:22;;;;;;;;;;;7.10;99.90;;;;;;5099275;28;19912;-77
2023/12/20 11:03:08;;;;;;;;;;;7.10;99.90;;;;;;5101285;28;19961;-76
2023/12/20 11:05:57;;;;;;;;;;;7.10;99.90;;;;;;5112767;28;20357;-76
2023/12/20 11:08:58;;;;;;;;;;;7.10;99.90;;;;;;5094687;28;20220;-76
2023/12/20 11:11:47;;;;;;;;;;;7.10;99.90;;;;;;5094260;28;19912;-76
2023/12/20 11:14:39;;;;;;;;;;;7.10;99.90;;;;;;5099350;28;20045;-76
2023/12/20 11:17:25;;;;;;;;;;;7.10;99.90;;;;;;5097848;28;19923;-77
2023/12/20 11:20:11;;;;;;;;;;;7.10;99.90;;;;;;5106625;28;19920;-77
2023/12/20 11:22:57;;;;;;;;;;;7.10;99.90;;;;;;5101712;28;19923;-77
2023/12/20 11:25:46;;;;;;;;;;;7.10;99.90;;;;;;5117275;28;20259;-75
2023/12/20 11:28:32;;;;;;;;;;;7.10;99.90;;;;;;5117857;28;19922;-76
2023/12/20 11:31:19;;;;;;;;;;;7.10;99.90;;;;;;5104281;28;19916;-76
2023/12/20 11:34:14;;;;;;;;;;;7.10;99.90;;;;;;5117265;28;19923;-77
2023/12/20 11:37:00;;;;;;;;;;;7.10;99.90;;;;;;5083011;28;19934;-75
2023/12/20 11:39:54;;;;;;;;;;;7.10;99.90;;;;;;5096116;28;19951;-76
2023/12/20 11:42:40;;;;;;;;;;;7.10;99.90;;;;;;5117129;28;19915;-77
2023/12/20 11:45:27;;;;;;;;;;;7.10;99.90;;;;;;5100756;28;20431;-76
2023/12/20 11:48:13;;;;;;;;;;;7.10;99.90;;;;;;5097601;28;19912;-77
2023/12/20 11:50:59;;;;;;;;;;;7.10;99.90;;;;;;5091937;28;19912;-76
2023/12/20 11:53:45;;;;;;;;;;;7.10;99.90;;;;;;5097549;28;20247;-76
2023/12/20 11:56:30;;;;;;;;;;;7.00;99.90;;;;;;5097259;28;19912;-75
2023/12/20 11:59:16;;;;;;;;;;;7.00;99.90;;;;;;5096757;28;19912;-77
2023/12/20 12:02:03;;;;;;;;;;;7.00;99.90;;;;;;5096538;28;19923;-75
2023/12/20 12:04:50;;;;;;;;;;;7.00;99.90;;;;;;5091206;28;20355;-77
2023/12/20 12:07:36;;;;;;;;;;;6.90;99.90;;;;;;5100741;28;19945;-77
2023/12/20 12:10:22;;;;;;;;;;;6.90;99.90;;;;;;5096945;28;19912;-77
2023/12/20 12:13:09;;;;;;;;;;;6.90;99.90;;;;;;5107449;28;19922;-77
2023/12/20 12:15:55;;;;;;;;;;;6.80;99.90;;;;;;5102554;28;19918;-77
2023/12/20 12:18:41;;;;;;;;;;;6.80;99.90;;;;;;5110947;28;19943;-77
2023/12/20 12:21:28;;;;;;;;;;;6.80;99.90;;;;;;5087144;28;19912;-76
2023/12/20 12:24:14;;;;;;;;;;;6.70;99.90;;;;;;5116627;28;20316;-76
2023/12/20 12:27:00;;;;;;;;;;;6.60;99.90;;;;;;5108198;28;19920;-75
2023/12/20 12:30:02;;;;;;;;;;;6.60;99.90;;;;;;5094922;28;19924;-76
2023/12/20 12:32:52;;;;;;;;;;;6.60;99.90;;;;;;5108961;28;19953;-76
2023/12/20 12:35:40;;;;;;;;;;;6.50;99.90;;;;;;5107835;27;19927;-74
2023/12/20 12:38:26;;;;;;;;;;;6.50;99.90;;;;;;5101751;28;19991;-76
2023/12/20 12:41:12;;;;;;;;;;;6.50;99.90;;;;;;5113703;27;20003;-76
2023/12/20 12:43:58;;;;;;;;;;;6.50;99.90;;;;;;5100584;28;19936;-76
2023/12/20 12:46:50;;;;;;;;;;;6.50;99.90;;;;;;5114611;28;19927;-77
2023/12/20 12:49:35;;;;;;;;;;;6.50;99.90;;;;;;5084098;28;20309;-77
2023/12/20 12:52:21;;;;;;;;;;;6.50;99.90;;;;;;5094997;28;19912;-77
2023/12/20 12:55:07;;;;;;;;;;;6.50;99.90;;;;;;5108570;27;19977;-76
2023/12/20 12:57:54;;;;;;;;;;;6.40;99.90;;;;;;5112592;28;19920;-76
2023/12/20 13:00:39;;;;;;;;;;;6.40;99.90;;;;;;5093842;28;19939;-77
2023/12/20 13:03:25;;;;;;;;;;;6.40;99.90;;;;;;5099891;28;20332;-77
2023/12/20 13:06:11;;;;;;;;;;;6.20;99.90;;;;;;5098752;27;19990;-77
2023/12/20 13:08:57;;;;;;;;;;;6.20;99.90;;;;;;5092832;28;20520;-77
2023/12/20 13:11:43;;;;;;;;;;;6.20;99.90;;;;;;5107090;28;19923;-76
2023/12/20 13:14:32;;;;;;;;;;;6.20;99.90;;;;;;5108908;28;20438;-77
2023/12/20 13:17:18;;;;;;;;;;;6.10;99.90;;;;;;5114746;27;20002;-76
2023/12/20 13:20:04;;;;;;;;;;;6.10;99.90;;;;;;5109687;28;19912;-77
2023/12/20 13:22:50;;;;;;;;;;;6.10;99.90;;;;;;5089091;28;19976;-77
2023/12/20 13:25:36;;;;;;;;;;;6.10;99.90;;;;;;5104420;27;19957;-76
2023/12/20 13:28:21;;;;;;;;;;;6.10;99.90;;;;;;5079804;28;19912;-76
2023/12/20 13:31:07;;;;;;;;;;;6.00;99.90;;;;;;5106392;28;19916;-78
2023/12/20 13:33:54;;;;;;;;;;;6.00;99.90;;;;;;5099249;28;19962;-76
2023/12/20 13:36:40;;;;;;;;;;;6.00;99.90;;;;;;5108421;28;19916;-76
2023/12/20 13:39:27;;;;;;;;;;;5.90;99.90;;;;;;5114352;27;19995;-77
2023/12/20 13:42:13;;;;;;;;;;;5.90;99.90;;;;;;5091809;28;19911;-77
2023/12/20 13:44:59;;;;;;;;;;;5.80;99.90;;;;;;5108788;27;19920;-75
2023/12/20 13:47:45;;;;;;;;;;;5.80;99.90;;;;;;5092083;28;19916;-77
2023/12/20 13:50:31;;;;;;;;;;;5.70;99.90;;;;;;5108846;27;19912;-76
2023/12/20 13:53:17;;;;;;;;;;;5.70;99.90;;;;;;5109145;27;19912;-77
2023/12/20 13:56:03;;;;;;;;;;;5.70;99.90;;;;;;5110819;28;19919;-75
2023/12/20 13:58:50;;;;;;;;;;;5.70;99.90;;;;;;5104267;28;19922;-75
2023/12/20 14:01:36;;;;;;;;;;;5.70;99.90;;;;;;5093817;28;19920;-75
2023/12/20 14:04:25;;;;;;;;;;;5.70;99.90;;;;;;5090456;28;19916;-76
2023/12/20 14:07:11;;;;;;;;;;;5.70;99.90;;;;;;5110949;28;19915;-76
2023/12/20 14:09:56;;;;;;;;;;;5.70;99.90;;;;;;5091745;28;19916;-75
2023/12/20 14:12:43;;;;;;;;;;;5.70;99.90;;;;;;5102688;28;19961;-75
2023/12/20 14:15:29;;;;;;;;;;;5.70;99.90;;;;;;5088468;28;20123;-78
2023/12/20 14:18:16;;;;;;;;;;;5.70;99.90;;;;;;5104900;28;19915;-78
2023/12/20 14:21:05;;;;;;;;;;;5.70;99.90;;;;;;5099100;28;19912;-74
2023/12/20 14:23:52;;;;;;;;;;;5.80;99.90;;;;;;5078566;28;19965;-78
2023/12/20 14:26:38;;;;;;;;;;;5.80;99.90;;;;;;5111765;28;19918;-75
2023/12/20 14:29:27;;;;;;;;;;;5.90;99.90;;;;;;5096929;28;19912;-76
2023/12/20 14:32:15;;;;;;;;;;;5.90;99.90;;;;;;5097878;28;19915;-74
2023/12/20 14:35:01;;;;;;;;;;;5.90;99.90;;;;;;5107954;28;19924;-74
2023/12/20 14:37:46;;;;;;;;;;;5.90;99.90;;;;;;5096520;28;19912;-75
2023/12/20 14:40:32;;;;;;;;;;;5.90;99.90;;;;;;5110854;28;20056;-75
2023/12/20 14:43:18;;;;;;;;;;;6.00;99.90;;;;;;5103080;28;19943;-76
2023/12/20 14:46:05;;;;;;;;;;;6.00;99.90;;;;;;5090328;28;19991;-75
2023/12/20 14:48:51;;;;;;;;;;;6.10;99.90;;;;;;5120652;28;19915;-76
2023/12/20 14:51:37;;;;;;;;;;;6.10;99.90;;;;;;5108656;27;20225;-74
2023/12/20 14:54:26;;;;;;;;;;;6.10;99.90;;;;;;5108738;28;20018;-74
2023/12/20 14:57:12;;;;;;;;;;;6.10;99.90;;;;;;5107801;28;19922;-75
2023/12/20 14:59:57;;;;;;;;;;;6.10;99.90;;;;;;5109124;28;19912;-76
2023/12/20 15:02:43;;;;;;;;;;;6.10;99.90;;;;;;5106998;28;19994;-76
2023/12/20 15:05:29;;;;;;;;;;;6.10;99.90;;;;;;5111305;27;19940;-78
2023/12/20 15:08:15;;;;;;;;;;;6.10;99.90;;;;;;5095419;28;20027;-76
2023/12/20 15:11:03;;;;;;;;;;;6.20;99.90;;;;;;5112139;27;20323;-77
2023/12/20 15:13:54;;;;;;;;;;;6.20;99.90;;;;;;5109933;28;19920;-76
2023/12/20 15:16:40;;;;;;;;;;;6.20;99.90;;;;;;5108069;27;20025;-77
2023/12/20 15:19:26;;;;;;;;;;;6.20;99.90;;;;;;5105150;27;19958;-76
2023/12/20 15:22:12;;;;;;;;;;;6.20;99.90;;;;;;5096746;28;19912;-75
2023/12/20 15:25:01;;;;;;;;;;;6.20;99.90;;;;;;5084122;28;19912;-77
2023/12/20 15:27:52;;;;;;;;;;;6.20;99.90;;;;;;5098544;28;19972;-77
2023/12/20 15:30:38;;;;;;;;;;;6.20;99.90;;;;;;5114122;28;19911;-76
2023/12/20 15:33:24;;;;;;;;;;;6.20;99.90;;;;;;5096787;27;19923;-76
2023/12/20 15:36:10;;;;;;;;;;;6.20;99.90;;;;;;5101142;28;19920;-77
2023/12/20 15:38:56;;;;;;;;;;;6.20;99.90;;;;;;5104517;28;19955;-77
2023/12/20 15:41:42;;;;;;;;;;;6.30;99.90;;;;;;5119259;27;19998;-77
2023/12/20 15:44:27;;;;;;;;;;;6.30;99.90;;;;;;5119670;27;20008;-76
2023/12/20 15:47:13;;;;;;;;;;;6.20;99.90;;;;;;5105964;28;19912;-77
2023/12/20 15:49:59;;;;;;;;;;;6.20;99.90;;;;;;5087194;28;19927;-78
2023/12/20 15:52:45;;;;;;;;;;;6.30;99.90;;;;;;5096297;28;19912;-78
2023/12/20 15:55:31;;;;;;;;;;;6.30;99.90;;;;;;5096985;28;19920;-77
2023/12/20 15:58:17;;;;;;;;;;;6.20;99.90;;;;;;5106053;28;20305;-77
2023/12/20 16:01:03;;;;;;;;;;;6.20;99.90;;;;;;5104101;28;19968;-77
2023/12/20 16:03:48;;;;;;;;;;;6.30;99.90;;;;;;5104475;28;19918;-77
2023/12/20 16:06:36;;;;;;;;;;;6.20;99.90;;;;;;5098060;28;19916;-77
2023/12/20 16:09:22;;;;;;;;;;;6.30;99.90;;;;;;5083019;28;19957;-76
2023/12/20 16:12:10;;;;;;;;;;;6.20;99.90;;;;;;5106594;28;19912;-76
2023/12/20 16:14:56;;;;;;;;;;;6.20;99.90;;;;;;5106744;28;19943;-77
2023/12/20 16:17:42;;;;;;;;;;;6.20;99.90;;;;;;5083686;28;19912;-76
2023/12/20 16:20:28;;;;;;;;;;;6.20;99.90;;;;;;5089419;28;20644;-76
2023/12/20 16:23:13;;;;;;;;;;;6.20;99.90;;;;;;5097053;28;19911;-75
2023/12/20 16:25:59;;;;;;;;;;;6.20;99.90;;;;;;5101887;28;20010;-75